Time;durP1;ratioP1;P1;durP2;ratioP2;P2;SDS_P1;SDS_P2;PMS_P1;PMS_P2;Temp;Humidity;BMP_temperature;BMP_pressure;BME280_temperature;BME280_humidity;BME280_pressure;Samples;Min_cycle;Max_cycle;Signal;HPM_P1;HPM_P2
2023/12/21 09:00:52;;;;;;;;;;;;;;;3.29;100.00;98808.93;1810788;77;20096;-76
2023/12/21 09:03:20;;;;;;;;;;;;;;;3.30;100.00;98799.47;1799172;79;20091;-71
2023/12/21 09:05:47;;;;;;;;;;;;;;;3.29;100.00;98802.50;1819077;79;20375;-72
2023/12/21 09:08:13;;;;;;;;;;;;;;;3.31;100.00;98796.83;1822074;79;20187;-68
2023/12/21 09:10:40;;;;;;;;;;;;;;;3.32;100.00;98793.36;1822005;79;20098;-74
2023/12/21 09:13:06;;;;;;;;;;;;;;;3.33;100.00;98787.30;1822359;79;20183;-73
2023/12/21 09:15:50;;;;;;;;;;;;;;;3.35;100.00;98784.20;1820300;79;20101;-74
2023/12/21 09:18:21;;;;;;;;;;;;;;;3.37;100.00;98784.59;1797955;79;20102;-74
2023/12/21 09:20:47;;;;;;;;;;;;;;;3.40;100.00;98780.14;1823027;79;20097;-75
2023/12/21 09:26:19;;;;;;;;;;;;;;;3.51;100.00;98774.48;1647589;85;20104;-70
2023/12/21 09:28:49;;;;;;;;;;;;;;;3.57;100.00;98771.63;1772984;79;20124;-84
2023/12/21 09:31:17;;;;;;;;;;;;;;;3.56;100.00;98763.08;1806482;79;20095;-75
2023/12/21 09:33:44;;;;;;;;;;;;;;;3.58;100.00;98763.84;1821549;79;20142;-77
2023/12/21 09:36:10;;;;;;;;;;;;;;;3.60;100.00;98757.30;1799214;79;20116;-72
2023/12/21 09:38:37;;;;;;;;;;;;;;;3.63;100.00;98756.70;1797869;79;20139;-76
2023/12/21 09:41:15;;;;;;;;;;;;;;;3.69;100.00;98759.44;1799017;79;20137;-76
2023/12/21 09:43:45;;;;;;;;;;;;;;;3.76;100.00;98755.66;1793551;79;20142;-74
2023/12/21 09:56:23;;;;;;;;;;;;;;;4.07;100.00;98741.25;1813452;79;20161;-70
2023/12/21 09:58:49;;;;;;;;;;;;;;;4.13;100.00;98745.64;1809535;79;20472;-67
2023/12/21 10:01:17;;;;;;;;;;;;;;;4.17;100.00;98741.17;1816665;78;20096;-73
2023/12/21 10:39:26;;;;;;;;;;;;;;;4.24;100.00;98693.58;1818411;78;20188;-71
2023/12/21 10:41:53;;;;;;;;;;;;;;;4.21;100.00;98697.14;1813477;79;20396;-73
2023/12/21 10:44:20;;;;;;;;;;;;;;;4.19;100.00;98703.28;1825346;78;20094;-73
2023/12/21 10:46:47;;;;;;;;;;;;;;;4.17;100.00;98706.39;1799427;79;20114;-69
2023/12/21 10:49:13;;;;;;;;;;;;;;;4.16;100.00;98709.88;1821949;78;20132;-76
2023/12/21 10:54:20;;;;;;;;;;;;;;;4.10;100.00;98707.16;1814428;77;20088;-71
2023/12/21 10:56:47;;;;;;;;;;;;;;;4.10;100.00;98708.90;1835501;78;20115;-73
2023/12/21 10:59:14;;;;;;;;;;;;;;;4.09;100.00;98699.05;1837017;78;20170;-73
2023/12/21 11:01:59;;;;;;;;;;;;;;;4.07;100.00;98693.14;1812311;78;20163;-75
2023/12/21 11:04:26;;;;;;;;;;;;;;;4.08;100.00;98690.95;1807028;79;20161;-71
2023/12/21 12:06:03;;;;;;;;;;;;;;;4.61;100.00;98617.72;1765018;80;20159;-85
2023/12/21 12:08:33;;;;;;;;;;;;;;;4.61;100.00;98618.55;1763257;81;20108;-78
2023/12/21 12:11:00;;;;;;;;;;;;;;;4.64;100.00;98615.80;1767673;80;20103;-78
2023/12/21 12:13:26;;;;;;;;;;;;;;;4.66;100.00;98610.11;1747900;81;20120;-81
2023/12/21 12:15:53;;;;;;;;;;;;;;;4.66;100.00;98598.50;1782391;80;20092;-78
2023/12/21 12:18:19;;;;;;;;;;;;;;;4.66;100.00;98597.67;1795589;80;20433;-74
2023/12/21 12:20:49;;;;;;;;;;;;;;;4.65;100.00;98589.56;1784017;80;20165;-75
2023/12/21 12:23:16;;;;;;;;;;;;;;;4.62;100.00;98584.11;1779721;80;20356;-76
2023/12/21 12:25:43;;;;;;;;;;;;;;;4.59;100.00;98582.16;1769800;80;20437;-73
2023/12/21 12:28:10;;;;;;;;;;;;;;;4.55;100.00;98576.80;1764114;81;20115;-78
2023/12/21 12:30:36;;;;;;;;;;;;;;;4.52;100.00;98575.67;1764175;81;20447;-78
2023/12/21 12:33:03;;;;;;;;;;;;;;;4.48;100.00;98572.89;1776818;80;20162;-73
2023/12/21 12:35:35;;;;;;;;;;;;;;;4.44;100.00;98568.36;1772314;80;20185;-76
2023/12/21 12:38:09;;;;;;;;;;;;;;;4.39;100.00;98566.52;1770091;80;20154;-78
2023/12/21 12:40:36;;;;;;;;;;;;;;;4.34;100.00;98554.33;1766462;80;20148;-77
2023/12/21 12:43:03;;;;;;;;;;;;;;;4.29;100.00;98558.45;1763797;81;20402;-81
2023/12/21 12:47:56;;;;;;;;;;;;;;;4.25;100.00;98551.80;1765989;80;20117;-76
2023/12/21 12:50:26;;;;;;;;;;;;;;;4.23;100.00;98545.06;1764305;81;20098;-80
2023/12/21 12:52:53;;;;;;;;;;;;;;;4.20;100.00;98541.36;1764162;81;20126;-76
2023/12/21 12:55:25;;;;;;;;;;;;;;;4.15;100.00;98540.31;1764211;81;20122;-80
2023/12/21 12:57:49;;;;;;;;;;;;;;;4.13;100.00;98538.27;1762191;80;20104;-79
2023/12/21 13:00:19;;;;;;;;;;;;;;;4.11;100.00;98540.10;1763194;81;20132;-83
2023/12/21 13:02:46;;;;;;;;;;;;;;;4.08;100.00;98536.40;1770484;80;20972;-81
2023/12/21 13:05:15;;;;;;;;;;;;;;;4.07;100.00;98533.45;1754150;82;20146;-82
2023/12/21 13:07:43;;;;;;;;;;;;;;;4.10;100.00;98535.03;1754146;82;20163;-82
2023/12/21 13:10:11;;;;;;;;;;;;;;;4.12;100.00;98534.04;1764550;80;20107;-73
2023/12/21 13:12:43;;;;;;;;;;;;;;;4.13;100.00;98532.30;1769394;80;20138;-74
2023/12/21 13:15:14;;;;;;;;;;;;;;;4.15;100.00;98527.89;1753020;80;20103;-79
2023/12/21 13:17:41;;;;;;;;;;;;;;;4.15;100.00;98523.57;1754645;82;20166;-83
2023/12/21 13:20:09;;;;;;;;;;;;;;;4.15;100.00;98524.03;1755258;82;20134;-73
2023/12/21 13:22:36;;;;;;;;;;;;;;;4.13;100.00;98515.55;1754958;80;20130;-73
2023/12/21 13:25:03;;;;;;;;;;;;;;;4.09;100.00;98511.02;1776774;80;20108;-75
2023/12/21 13:27:31;;;;;;;;;;;;;;;4.03;100.00;98512.17;1778521;81;20937;-73
2023/12/21 13:29:58;;;;;;;;;;;;;;;3.96;100.00;98510.88;1778190;81;20127;-71
2023/12/21 13:47:21;;;;;;;;;;;;;;;3.39;100.00;98512.63;1732221;80;20597;-79
2023/12/21 13:49:48;;;;;;;;;;;;;;;3.31;100.00;98515.13;1762645;80;20092;-79
2023/12/21 13:52:15;;;;;;;;;;;;;;;3.24;100.00;98520.20;1764153;80;20197;-73
2023/12/21 13:54:41;;;;;;;;;;;;;;;3.18;100.00;98514.56;1758699;80;20468;-79
2023/12/21 13:57:08;;;;;;;;;;;;;;;3.10;100.00;98512.38;1754785;82;20122;-73
2023/12/21 13:59:34;;;;;;;;;;;;;;;3.05;100.00;98506.63;1758656;80;20135;-74
2023/12/21 14:02:02;;;;;;;;;;;;;;;2.97;100.00;98508.73;1758639;79;20126;-74
2023/12/21 14:04:28;;;;;;;;;;;;;;;2.90;100.00;98515.92;1761793;80;20187;-74
2023/12/21 14:06:55;;;;;;;;;;;;;;;2.84;100.00;98511.53;1761591;80;20389;-70
2023/12/21 14:09:37;;;;;;;;;;;;;;;2.78;100.00;98508.00;1765093;80;20102;-71
2023/12/21 14:14:54;;;;;;;;;;;;;;;2.66;100.00;98517.13;1744908;80;20116;-74
2023/12/21 14:17:25;;;;;;;;;;;;;;;2.62;100.00;98502.77;1784742;80;20143;-70
2023/12/21 14:20:01;;;;;;;;;;;;;;;2.60;100.00;98500.27;1786015;80;20410;-73
2023/12/21 14:22:28;;;;;;;;;;;;;;;2.59;100.00;98493.91;1776756;80;20170;-71
2023/12/21 14:24:55;;;;;;;;;;;;;;;2.59;100.00;98497.77;1767997;80;20130;-73
2023/12/21 14:27:23;;;;;;;;;;;;;;;2.55;100.00;98498.37;1769286;81;20131;-71
